sensor_id;sensor_type;location;lat;lon;timestamp;pressure;altitude;pressure_sealevel;temperature;humidity
40171;BME280;37650;52.790;18.268;2023-03-26T00:01:24;99128.26;;;6.39;100.00
40171;BME280;37650;52.790;18.268;2023-03-26T00:04:46;99131.21;;;6.40;100.00
40171;BME280;37650;52.790;18.268;2023-03-26T00:08:07;99126.85;;;6.39;100.00
40171;BME280;37650;52.790;18.268;2023-03-26T00:11:29;99124.71;;;6.36;100.00
40171;BME280;37650;52.790;18.268;2023-03-26T00:14:50;99123.58;;;6.34;100.00
40171;BME280;37650;52.790;18.268;2023-03-26T00:18:12;99127.58;;;6.30;100.00
40171;BME280;37650;52.790;18.268;2023-03-26T00:21:34;99130.20;;;6.25;100.00
40171;BME280;37650;52.790;18.268;2023-03-26T00:24:55;99130.11;;;6.23;100.00
40171;BME280;37650;52.790;18.268;2023-03-26T00:28:17;99127.42;;;6.21;100.00
40171;BME280;37650;52.790;18.268;2023-03-26T00:31:41;99128.13;;;6.20;100.00
40171;BME280;37650;52.790;18.268;2023-03-26T00:35:06;99126.77;;;6.20;100.00
40171;BME280;37650;52.790;18.268;2023-03-26T00:38:28;99124.75;;;6.22;100.00
40171;BME280;37650;52.790;18.268;2023-03-26T00:41:50;99120.06;;;6.26;100.00
40171;BME280;37650;52.790;18.268;2023-03-26T00:45:14;99116.15;;;6.32;100.00
40171;BME280;37650;52.790;18.268;2023-03-26T00:48:37;99110.36;;;6.38;100.00
40171;BME280;37650;52.790;18.268;2023-03-26T00:51:59;99106.28;;;6.44;100.00
40171;BME280;37650;52.790;18.268;2023-03-26T00:55:24;99106.83;;;6.48;100.00
40171;BME280;37650;52.790;18.268;2023-03-26T00:58:46;99100.75;;;6.52;100.00
40171;BME280;37650;52.790;18.268;2023-03-26T01:02:12;99096.86;;;6.53;100.00
40171;BME280;37650;52.790;18.268;2023-03-26T01:05:44;99096.98;;;6.51;100.00
40171;BME280;37650;52.790;18.268;2023-03-26T01:09:17;99095.00;;;6.47;100.00
40171;BME280;37650;52.790;18.268;2023-03-26T01:12:38;99094.55;;;6.46;100.00
40171;BME280;37650;52.790;18.268;2023-03-26T01:16:00;99088.42;;;6.42;100.00
40171;BME280;37650;52.790;18.268;2023-03-26T01:23:06;99087.63;;;6.36;100.00
40171;BME280;37650;52.790;18.268;2023-03-26T01:26:38;99089.20;;;6.31;100.00
40171;BME280;37650;52.790;18.268;2023-03-26T01:31:03;99086.38;;;6.28;100.00
40171;BME280;37650;52.790;18.268;2023-03-26T01:34:06;99084.66;;;6.23;100.00
40171;BME280;37650;52.790;18.268;2023-03-26T01:41:09;99081.25;;;6.21;100.00
40171;BME280;37650;52.790;18.268;2023-03-26T01:44:51;99080.52;;;6.22;100.00
40171;BME280;37650;52.790;18.268;2023-03-26T01:48:15;99080.13;;;6.23;100.00
40171;BME280;37650;52.790;18.268;2023-03-26T01:51:37;99078.94;;;6.27;100.00
40171;BME280;37650;52.790;18.268;2023-03-26T01:54:59;99078.46;;;6.30;100.00
40171;BME280;37650;52.790;18.268;2023-03-26T01:58:33;99076.27;;;6.32;100.00
40171;BME280;37650;52.790;18.268;2023-03-26T02:05:53;99078.40;;;6.36;100.00
40171;BME280;37650;52.790;18.268;2023-03-26T02:09:21;99075.68;;;6.34;100.00
40171;BME280;37650;52.790;18.268;2023-03-26T02:12:45;99073.60;;;6.34;100.00
40171;BME280;37650;52.790;18.268;2023-03-26T02:16:09;99072.98;;;6.31;100.00
40171;BME280;37650;52.790;18.268;2023-03-26T02:19:33;99072.66;;;6.31;100.00
40171;BME280;37650;52.790;18.268;2023-03-26T02:22:58;99070.74;;;6.31;100.00
40171;BME280;37650;52.790;18.268;2023-03-26T02:26:36;99067.55;;;6.33;100.00
40171;BME280;37650;52.790;18.268;2023-03-26T02:30:01;99059.42;;;6.31;100.00
40171;BME280;37650;52.790;18.268;2023-03-26T02:33:22;99062.66;;;6.29;100.00
40171;BME280;37650;52.790;18.268;2023-03-26T02:36:44;99062.16;;;6.28;100.00
40171;BME280;37650;52.790;18.268;2023-03-26T02:40:06;99062.86;;;6.28;100.00
40171;BME280;37650;52.790;18.268;2023-03-26T02:43:32;99062.55;;;6.31;100.00
40171;BME280;37650;52.790;18.268;2023-03-26T02:46:53;99065.41;;;6.34;100.00
40171;BME280;37650;52.790;18.268;2023-03-26T02:50:41;99061.29;;;6.32;100.00
40171;BME280;37650;52.790;18.268;2023-03-26T02:54:32;99054.23;;;6.31;100.00
40171;BME280;37650;52.790;18.268;2023-03-26T02:58:06;99045.79;;;6.24;100.00
40171;BME280;37650;52.790;18.268;2023-03-26T03:01:31;99040.25;;;6.19;100.00
40171;BME280;37650;52.790;18.268;2023-03-26T03:04:55;99031.66;;;6.16;100.00
40171;BME280;37650;52.790;18.268;2023-03-26T03:08:26;99031.80;;;6.13;100.00
40171;BME280;37650;52.790;18.268;2023-03-26T03:12:14;99032.77;;;6.10;100.00
40171;BME280;37650;52.790;18.268;2023-03-26T03:15:35;99034.70;;;6.10;100.00
40171;BME280;37650;52.790;18.268;2023-03-26T03:18:57;99033.29;;;6.10;100.00
40171;BME280;37650;52.790;18.268;2023-03-26T03:22:20;99033.68;;;6.09;100.00
40171;BME280;37650;52.790;18.268;2023-03-26T03:25:42;99035.40;;;6.10;100.00
40171;BME280;37650;52.790;18.268;2023-03-26T03:29:03;99035.34;;;6.07;100.00
40171;BME280;37650;52.790;18.268;2023-03-26T03:32:25;99037.31;;;6.06;100.00
40171;BME280;37650;52.790;18.268;2023-03-26T03:35:51;99034.60;;;6.04;100.00
40171;BME280;37650;52.790;18.268;2023-03-26T03:39:13;99035.55;;;5.97;100.00
40171;BME280;37650;52.790;18.268;2023-03-26T03:42:35;99032.60;;;5.93;100.00
40171;BME280;37650;52.790;18.268;2023-03-26T03:45:57;99030.45;;;5.90;100.00
40171;BME280;37650;52.790;18.268;2023-03-26T03:49:45;99030.66;;;5.93;100.00
40171;BME280;37650;52.790;18.268;2023-03-26T03:53:06;99028.71;;;5.99;100.00
40171;BME280;37650;52.790;18.268;2023-03-26T03:56:28;99029.54;;;6.04;100.00
40171;BME280;37650;52.790;18.268;2023-03-26T04:00:10;99030.77;;;6.08;100.00
40171;BME280;37650;52.790;18.268;2023-03-26T04:03:38;99031.41;;;6.14;100.00
40171;BME280;37650;52.790;18.268;2023-03-26T04:07:04;99033.38;;;6.21;100.00
40171;BME280;37650;52.790;18.268;2023-03-26T04:11:01;99035.20;;;6.27;100.00
40171;BME280;37650;52.790;18.268;2023-03-26T04:14:43;99033.55;;;6.29;100.00
40171;BME280;37650;52.790;18.268;2023-03-26T04:18:10;99030.78;;;6.29;100.00
40171;BME280;37650;52.790;18.268;2023-03-26T04:21:31;99034.28;;;6.28;100.00
40171;BME280;37650;52.790;18.268;2023-03-26T04:24:57;99027.86;;;6.28;100.00
40171;BME280;37650;52.790;18.268;2023-03-26T04:28:47;99025.84;;;6.26;100.00
40171;BME280;37650;52.790;18.268;2023-03-26T04:32:24;99023.58;;;6.26;100.00
40171;BME280;37650;52.790;18.268;2023-03-26T04:35:54;99019.77;;;6.25;100.00
40171;BME280;37650;52.790;18.268;2023-03-26T04:39:23;99020.55;;;6.28;100.00
40171;BME280;37650;52.790;18.268;2023-03-26T04:43:15;99014.40;;;6.29;100.00
40171;BME280;37650;52.790;18.268;2023-03-26T04:46:48;99013.08;;;6.31;100.00
40171;BME280;37650;52.790;18.268;2023-03-26T04:50:18;99005.73;;;6.32;100.00
40171;BME280;37650;52.790;18.268;2023-03-26T04:53:39;99007.70;;;6.31;100.00
40171;BME280;37650;52.790;18.268;2023-03-26T04:57:23;99004.70;;;6.31;100.00
40171;BME280;37650;52.790;18.268;2023-03-26T05:00:56;99003.25;;;6.33;100.00
40171;BME280;37650;52.790;18.268;2023-03-26T05:04:21;99002.16;;;6.35;100.00
40171;BME280;37650;52.790;18.268;2023-03-26T05:07:51;99006.59;;;6.37;100.00
40171;BME280;37650;52.790;18.268;2023-03-26T05:11:13;99010.70;;;6.39;100.00
40171;BME280;37650;52.790;18.268;2023-03-26T05:14:34;99007.73;;;6.40;100.00
40171;BME280;37650;52.790;18.268;2023-03-26T05:17:57;99005.71;;;6.41;100.00
40171;BME280;37650;52.790;18.268;2023-03-26T05:21:38;99008.23;;;6.44;100.00
40171;BME280;37650;52.790;18.268;2023-03-26T05:25:02;99011.11;;;6.46;100.00
40171;BME280;37650;52.790;18.268;2023-03-26T05:28:23;99009.04;;;6.50;100.00
40171;BME280;37650;52.790;18.268;2023-03-26T05:32:08;99011.66;;;6.49;100.00
40171;BME280;37650;52.790;18.268;2023-03-26T05:35:30;99013.29;;;6.52;100.00
40171;BME280;37650;52.790;18.268;2023-03-26T05:38:51;99013.45;;;6.52;100.00
40171;BME280;37650;52.790;18.268;2023-03-26T05:42:32;99012.90;;;6.53;100.00
40171;BME280;37650;52.790;18.268;2023-03-26T05:46:11;99012.08;;;6.52;100.00
40171;BME280;37650;52.790;18.268;2023-03-26T05:49:33;99012.18;;;6.53;100.00
40171;BME280;37650;52.790;18.268;2023-03-26T05:52:54;99016.51;;;6.54;100.00
40171;BME280;37650;52.790;18.268;2023-03-26T05:56:38;99008.84;;;6.58;100.00
40171;BME280;37650;52.790;18.268;2023-03-26T06:00:19;99016.36;;;6.62;100.00
40171;BME280;37650;52.790;18.268;2023-03-26T06:03:41;99016.98;;;6.63;100.00
40171;BME280;37650;52.790;18.268;2023-03-26T06:07:11;99021.06;;;6.65;100.00
40171;BME280;37650;52.790;18.268;2023-03-26T06:10:37;99023.38;;;6.73;100.00
40171;BME280;37650;52.790;18.268;2023-03-26T06:13:59;99018.02;;;6.79;100.00
40171;BME280;37650;52.790;18.268;2023-03-26T06:17:21;99019.40;;;6.88;100.00
40171;BME280;37650;52.790;18.268;2023-03-26T06:21:17;99026.04;;;6.95;100.00
40171;BME280;37650;52.790;18.268;2023-03-26T06:24:55;99026.08;;;6.99;100.00
40171;BME280;37650;52.790;18.268;2023-03-26T06:28:32;99030.48;;;7.01;100.00
40171;BME280;37650;52.790;18.268;2023-03-26T06:32:12;99032.63;;;7.04;100.00
40171;BME280;37650;52.790;18.268;2023-03-26T06:35:45;99032.13;;;7.04;100.00
40171;BME280;37650;52.790;18.268;2023-03-26T06:39:07;99036.69;;;7.07;100.00
40171;BME280;37650;52.790;18.268;2023-03-26T06:42:30;99038.85;;;7.09;100.00
40171;BME280;37650;52.790;18.268;2023-03-26T06:46:14;99040.72;;;7.10;100.00
40171;BME280;37650;52.790;18.268;2023-03-26T06:49:54;99037.73;;;7.14;100.00
40171;BME280;37650;52.790;18.268;2023-03-26T06:53:42;99036.23;;;7.21;100.00
40171;BME280;37650;52.790;18.268;2023-03-26T06:57:23;99041.02;;;7.24;100.00
40171;BME280;37650;52.790;18.268;2023-03-26T07:01:03;99037.76;;;7.26;100.00
40171;BME280;37650;52.790;18.268;2023-03-26T07:04:51;99039.83;;;7.31;100.00
40171;BME280;37650;52.790;18.268;2023-03-26T07:08:32;99039.40;;;7.40;100.00
40171;BME280;37650;52.790;18.268;2023-03-26T07:12:13;99042.27;;;7.50;100.00
40171;BME280;37650;52.790;18.268;2023-03-26T07:15:54;99043.39;;;7.55;100.00
40171;BME280;37650;52.790;18.268;2023-03-26T07:19:33;99042.02;;;7.66;100.00
40171;BME280;37650;52.790;18.268;2023-03-26T07:22:55;99043.27;;;7.73;100.00
40171;BME280;37650;52.790;18.268;2023-03-26T07:26:42;99039.74;;;7.78;100.00
40171;BME280;37650;52.790;18.268;2023-03-26T07:30:58;99042.89;;;7.89;100.00
40171;BME280;37650;52.790;18.268;2023-03-26T07:34:45;99048.92;;;7.94;100.00
40171;BME280;37650;52.790;18.268;2023-03-26T07:42:28;99046.05;;;8.02;100.00
40171;BME280;37650;52.790;18.268;2023-03-26T07:46:10;99052.20;;;7.98;100.00
40171;BME280;37650;52.790;18.268;2023-03-26T07:54:35;99053.37;;;8.64;100.00
40171;BME280;37650;52.790;18.268;2023-03-26T08:21:27;99064.64;;;9.11;100.00
40171;BME280;37650;52.790;18.268;2023-03-26T08:25:17;99064.05;;;9.05;100.00
40171;BME280;37650;52.790;18.268;2023-03-26T08:32:18;99069.42;;;8.61;100.00
40171;BME280;37650;52.790;18.268;2023-03-26T08:35:40;99072.55;;;8.40;100.00
40171;BME280;37650;52.790;18.268;2023-03-26T08:39:05;99074.48;;;8.25;100.00
40171;BME280;37650;52.790;18.268;2023-03-26T08:57:28;99092.29;;;8.18;100.00
40171;BME280;37650;52.790;18.268;2023-03-26T09:38:43;99100.86;;;8.62;100.00
40171;BME280;37650;52.790;18.268;2023-03-26T09:57:10;99104.58;;;9.47;100.00
40171;BME280;37650;52.790;18.268;2023-03-26T10:04:37;99107.19;;;9.83;100.00
40171;BME280;37650;52.790;18.268;2023-03-26T10:15:34;99104.14;;;9.74;100.00
40171;BME280;37650;52.790;18.268;2023-03-26T10:45:25;99086.05;;;15.85;95.84
40171;BME280;37650;52.790;18.268;2023-03-26T10:59:41;99080.44;;;20.93;68.06
40171;BME280;37650;52.790;18.268;2023-03-26T11:14:23;99086.11;;;15.99;67.78
40171;BME280;37650;52.790;18.268;2023-03-26T11:21:36;99088.88;;;13.49;72.89
40171;BME280;37650;52.790;18.268;2023-03-26T11:32:41;99089.55;;;11.91;78.51
40171;BME280;37650;52.790;18.268;2023-03-26T11:36:15;99092.11;;;11.66;78.40
40171;BME280;37650;52.790;18.268;2023-03-26T11:39:57;99094.70;;;11.48;79.60
40171;BME280;37650;52.790;18.268;2023-03-26T11:43:23;99091.08;;;11.63;80.89
40171;BME280;37650;52.790;18.268;2023-03-26T11:46:49;99083.70;;;12.98;80.22
40171;BME280;37650;52.790;18.268;2023-03-26T11:50:20;99074.51;;;13.46;79.30
40171;BME280;37650;52.790;18.268;2023-03-26T11:53:45;99076.77;;;13.02;79.36
40171;BME280;37650;52.790;18.268;2023-03-26T11:57:15;99077.11;;;12.58;78.27
40171;BME280;37650;52.790;18.268;2023-03-26T12:00:39;99076.69;;;12.08;78.63
40171;BME280;37650;52.790;18.268;2023-03-26T12:04:07;99076.72;;;11.63;78.53
40171;BME280;37650;52.790;18.268;2023-03-26T12:07:34;99088.39;;;11.18;80.16
40171;BME280;37650;52.790;18.268;2023-03-26T12:11:09;99093.25;;;10.69;84.13
40171;BME280;37650;52.790;18.268;2023-03-26T12:14:33;99075.84;;;10.33;87.36
40171;BME280;37650;52.790;18.268;2023-03-26T12:17:57;99077.30;;;10.35;89.54
40171;BME280;37650;52.790;18.268;2023-03-26T12:21:19;99071.52;;;10.56;89.95
40171;BME280;37650;52.790;18.268;2023-03-26T12:24:42;99068.29;;;11.11;89.11
40171;BME280;37650;52.790;18.268;2023-03-26T12:32:04;99055.29;;;16.63;79.33
40171;BME280;37650;52.790;18.268;2023-03-26T12:35:32;99053.85;;;19.85;71.92
40171;BME280;37650;52.790;18.268;2023-03-26T12:38:54;99052.02;;;19.50;68.36
40171;BME280;37650;52.790;18.268;2023-03-26T12:42:30;99051.13;;;20.06;63.58
40171;BME280;37650;52.790;18.268;2023-03-26T12:45:56;99054.84;;;20.41;63.34
40171;BME280;37650;52.790;18.268;2023-03-26T12:49:22;99052.45;;;18.54;62.77
40171;BME280;37650;52.790;18.268;2023-03-26T12:57:14;99054.65;;;16.62;64.47
40171;BME280;37650;52.790;18.268;2023-03-26T13:15:46;99060.19;;;16.29;64.00
40171;BME280;37650;52.790;18.268;2023-03-26T13:19:34;99066.80;;;15.57;66.58
40171;BME280;37650;52.790;18.268;2023-03-26T13:23:19;99070.68;;;14.68;68.38
40171;BME280;37650;52.790;18.268;2023-03-26T13:26:53;99067.00;;;13.67;70.04
40171;BME280;37650;52.790;18.268;2023-03-26T13:30:24;99067.20;;;12.88;71.82
40171;BME280;37650;52.790;18.268;2023-03-26T13:33:59;99071.58;;;12.33;73.62
40171;BME280;37650;52.790;18.268;2023-03-26T13:38:10;99069.57;;;12.04;75.26
40171;BME280;37650;52.790;18.268;2023-03-26T13:44:57;99064.34;;;12.41;77.28
40171;BME280;37650;52.790;18.268;2023-03-26T13:48:24;99057.98;;;12.68;77.09
40171;BME280;37650;52.790;18.268;2023-03-26T13:51:57;99057.19;;;12.93;77.03
40171;BME280;37650;52.790;18.268;2023-03-26T13:55:27;99056.35;;;12.87;77.13
40171;BME280;37650;52.790;18.268;2023-03-26T13:58:55;99055.00;;;12.65;77.87
40171;BME280;37650;52.790;18.268;2023-03-26T14:02:32;99057.05;;;12.74;78.81
40171;BME280;37650;52.790;18.268;2023-03-26T14:05:59;99057.91;;;13.03;78.14
40171;BME280;37650;52.790;18.268;2023-03-26T14:09:39;99059.66;;;12.83;78.66
40171;BME280;37650;52.790;18.268;2023-03-26T14:16:42;99053.61;;;12.55;79.59
40171;BME280;37650;52.790;18.268;2023-03-26T14:24:02;99051.95;;;12.02;80.40
40171;BME280;37650;52.790;18.268;2023-03-26T14:31:41;99046.90;;;14.19;73.51
40171;BME280;37650;52.790;18.268;2023-03-26T14:35:30;99051.88;;;13.06;73.02
40171;BME280;37650;52.790;18.268;2023-03-26T14:39:10;99047.89;;;12.18;74.51
40171;BME280;37650;52.790;18.268;2023-03-26T14:53:43;99054.52;;;11.18;79.63
40171;BME280;37650;52.790;18.268;2023-03-26T15:42:20;99045.41;;;10.41;82.51
40171;BME280;37650;52.790;18.268;2023-03-26T15:49:59;99043.94;;;10.78;82.49
40171;BME280;37650;52.790;18.268;2023-03-26T16:05:40;99052.64;;;10.34;81.89
40171;BME280;37650;52.790;18.268;2023-03-26T16:09:20;99056.15;;;10.19;82.85
40171;BME280;37650;52.790;18.268;2023-03-26T16:16:53;99060.14;;;10.06;83.49
40171;BME280;37650;52.790;18.268;2023-03-26T16:20:32;99062.42;;;10.00;82.72
40171;BME280;37650;52.790;18.268;2023-03-26T16:27:27;99070.17;;;9.90;82.24
40171;BME280;37650;52.790;18.268;2023-03-26T16:34:57;99068.13;;;9.73;82.17
40171;BME280;37650;52.790;18.268;2023-03-26T16:38:23;99071.83;;;9.63;82.40
40171;BME280;37650;52.790;18.268;2023-03-26T16:52:34;99078.11;;;9.14;81.86
40171;BME280;37650;52.790;18.268;2023-03-26T16:56:14;99080.46;;;8.99;80.84
40171;BME280;37650;52.790;18.268;2023-03-26T16:59:53;99082.16;;;8.86;80.95
40171;BME280;37650;52.790;18.268;2023-03-26T17:03:39;99086.55;;;8.71;80.36
40171;BME280;37650;52.790;18.268;2023-03-26T17:07:31;99085.02;;;8.57;79.95
40171;BME280;37650;52.790;18.268;2023-03-26T17:11:20;99089.20;;;8.43;79.11
40171;BME280;37650;52.790;18.268;2023-03-26T17:14:59;99092.50;;;8.32;78.94
40171;BME280;37650;52.790;18.268;2023-03-26T17:18:38;99096.08;;;8.19;78.58
40171;BME280;37650;52.790;18.268;2023-03-26T17:22:16;99101.98;;;8.09;78.97
40171;BME280;37650;52.790;18.268;2023-03-26T17:26:07;99103.83;;;7.99;78.87
40171;BME280;37650;52.790;18.268;2023-03-26T17:29:50;99106.98;;;7.88;79.00
40171;BME280;37650;52.790;18.268;2023-03-26T17:36:59;99112.17;;;7.67;80.06
40171;BME280;37650;52.790;18.268;2023-03-26T17:40:44;99111.08;;;7.56;80.17
40171;BME280;37650;52.790;18.268;2023-03-26T17:44:35;99107.80;;;7.43;81.12
40171;BME280;37650;52.790;18.268;2023-03-26T17:48:07;99114.00;;;7.30;81.43
40171;BME280;37650;52.790;18.268;2023-03-26T17:51:53;99111.87;;;7.18;81.70
40171;BME280;37650;52.790;18.268;2023-03-26T17:55:31;99112.17;;;7.07;82.31
40171;BME280;37650;52.790;18.268;2023-03-26T17:58:59;99111.38;;;6.98;82.77
40171;BME280;37650;52.790;18.268;2023-03-26T18:02:36;99113.67;;;6.88;83.48
40171;BME280;37650;52.790;18.268;2023-03-26T18:06:56;99114.17;;;6.81;83.92
40171;BME280;37650;52.790;18.268;2023-03-26T18:17:11;99115.80;;;6.67;84.80
40171;BME280;37650;52.790;18.268;2023-03-26T18:20:35;99113.94;;;6.62;84.98
40171;BME280;37650;52.790;18.268;2023-03-26T18:24:06;99112.28;;;6.51;84.92
40171;BME280;37650;52.790;18.268;2023-03-26T18:27:39;99113.55;;;6.41;85.28
40171;BME280;37650;52.790;18.268;2023-03-26T18:31:16;99111.90;;;6.34;86.13
40171;BME280;37650;52.790;18.268;2023-03-26T18:34:48;99113.96;;;6.22;86.69
40171;BME280;37650;52.790;18.268;2023-03-26T18:38:21;99114.09;;;6.10;87.13
40171;BME280;37650;52.790;18.268;2023-03-26T18:41:48;99112.85;;;5.97;87.62
40171;BME280;37650;52.790;18.268;2023-03-26T18:48:55;99104.23;;;5.67;88.66
40171;BME280;37650;52.790;18.268;2023-03-26T18:52:22;99110.48;;;5.58;89.38
40171;BME280;37650;52.790;18.268;2023-03-26T18:55:47;99112.80;;;5.46;89.58
40171;BME280;37650;52.790;18.268;2023-03-26T18:59:29;99112.59;;;5.38;89.98
40171;BME280;37650;52.790;18.268;2023-03-26T19:03:05;99113.58;;;5.30;90.62
40171;BME280;37650;52.790;18.268;2023-03-26T19:06:32;99110.85;;;5.29;91.14
40171;BME280;37650;52.790;18.268;2023-03-26T19:10:00;99109.18;;;5.27;91.94
40171;BME280;37650;52.790;18.268;2023-03-26T19:13:23;99111.23;;;5.23;92.34
40171;BME280;37650;52.790;18.268;2023-03-26T19:16:59;99108.39;;;5.19;92.48
40171;BME280;37650;52.790;18.268;2023-03-26T19:20:31;99104.42;;;5.14;92.41
40171;BME280;37650;52.790;18.268;2023-03-26T19:23:56;99102.38;;;5.07;92.61
40171;BME280;37650;52.790;18.268;2023-03-26T19:27:20;99102.39;;;5.07;93.02
40171;BME280;37650;52.790;18.268;2023-03-26T19:31:05;99103.72;;;5.08;93.36
40171;BME280;37650;52.790;18.268;2023-03-26T19:34:38;99100.32;;;5.07;93.60
40171;BME280;37650;52.790;18.268;2023-03-26T19:38:12;99100.44;;;5.04;93.42
40171;BME280;37650;52.790;18.268;2023-03-26T19:41:43;99099.30;;;5.02;93.78
40171;BME280;37650;52.790;18.268;2023-03-26T19:45:18;99098.50;;;4.99;94.05
40171;BME280;37650;52.790;18.268;2023-03-26T19:48:45;99097.17;;;4.97;94.22
40171;BME280;37650;52.790;18.268;2023-03-26T19:52:20;99100.61;;;4.93;94.29
40171;BME280;37650;52.790;18.268;2023-03-26T19:59:32;99102.10;;;4.81;95.04
40171;BME280;37650;52.790;18.268;2023-03-26T20:02:55;99100.73;;;4.80;95.31
40171;BME280;37650;52.790;18.268;2023-03-26T20:06:21;99101.39;;;4.76;95.50
40171;BME280;37650;52.790;18.268;2023-03-26T20:09:44;99102.52;;;4.68;95.60
40171;BME280;37650;52.790;18.268;2023-03-26T20:13:16;99098.80;;;4.59;95.96
40171;BME280;37650;52.790;18.268;2023-03-26T20:16:38;99102.67;;;4.53;96.58
40171;BME280;37650;52.790;18.268;2023-03-26T20:20:00;99107.27;;;4.45;96.08
40171;BME280;37650;52.790;18.268;2023-03-26T20:23:26;99108.39;;;4.43;96.92
40171;BME280;37650;52.790;18.268;2023-03-26T20:26:54;99108.51;;;4.50;97.24
40171;BME280;37650;52.790;18.268;2023-03-26T20:30:17;99110.54;;;4.56;97.61
40171;BME280;37650;52.790;18.268;2023-03-26T20:33:42;99113.87;;;4.61;97.33
40171;BME280;37650;52.790;18.268;2023-03-26T20:37:04;99112.61;;;4.62;97.26
40171;BME280;37650;52.790;18.268;2023-03-26T20:40:27;99114.85;;;4.63;97.22
40171;BME280;37650;52.790;18.268;2023-03-26T20:43:50;99118.00;;;4.62;96.92
40171;BME280;37650;52.790;18.268;2023-03-26T20:47:12;99123.60;;;4.61;96.88
40171;BME280;37650;52.790;18.268;2023-03-26T20:50:35;99120.34;;;4.59;97.41
40171;BME280;37650;52.790;18.268;2023-03-26T20:53:57;99121.96;;;4.63;97.72
40171;BME280;37650;52.790;18.268;2023-03-26T20:57:22;99121.84;;;4.66;97.78
40171;BME280;37650;52.790;18.268;2023-03-26T21:00:43;99122.41;;;4.65;97.63
40171;BME280;37650;52.790;18.268;2023-03-26T21:04:06;99126.02;;;4.61;97.96
40171;BME280;37650;52.790;18.268;2023-03-26T21:07:28;99129.66;;;4.56;98.29
40171;BME280;37650;52.790;18.268;2023-03-26T21:10:49;99138.02;;;4.50;98.53
40171;BME280;37650;52.790;18.268;2023-03-26T21:14:30;99144.44;;;4.45;99.12
40171;BME280;37650;52.790;18.268;2023-03-26T21:17:53;99148.67;;;4.43;99.24
40171;BME280;37650;52.790;18.268;2023-03-26T21:25:09;99156.18;;;4.42;100.00
40171;BME280;37650;52.790;18.268;2023-03-26T21:28:47;99157.40;;;4.42;100.00
40171;BME280;37650;52.790;18.268;2023-03-26T21:32:11;99154.71;;;4.39;100.00
40171;BME280;37650;52.790;18.268;2023-03-26T21:35:35;99160.20;;;4.30;100.00
40171;BME280;37650;52.790;18.268;2023-03-26T21:38:56;99159.42;;;4.21;100.00
40171;BME280;37650;52.790;18.268;2023-03-26T21:42:18;99159.64;;;4.14;100.00
40171;BME280;37650;52.790;18.268;2023-03-26T21:45:40;99169.15;;;4.04;100.00
40171;BME280;37650;52.790;18.268;2023-03-26T21:49:03;99168.06;;;3.94;100.00
40171;BME280;37650;52.790;18.268;2023-03-26T21:52:25;99168.44;;;3.87;100.00
40171;BME280;37650;52.790;18.268;2023-03-26T21:59:45;99166.92;;;3.72;100.00
40171;BME280;37650;52.790;18.268;2023-03-26T22:07:01;99162.27;;;3.59;100.00
40171;BME280;37650;52.790;18.268;2023-03-26T22:10:24;99160.74;;;3.53;100.00
40171;BME280;37650;52.790;18.268;2023-03-26T22:13:46;99165.74;;;3.47;100.00
40171;BME280;37650;52.790;18.268;2023-03-26T22:17:07;99158.95;;;3.42;100.00
40171;BME280;37650;52.790;18.268;2023-03-26T22:20:29;99161.20;;;3.42;100.00
40171;BME280;37650;52.790;18.268;2023-03-26T22:23:54;99161.91;;;3.42;100.00
40171;BME280;37650;52.790;18.268;2023-03-26T22:27:16;99164.34;;;3.42;100.00
40171;BME280;37650;52.790;18.268;2023-03-26T22:30:37;99167.02;;;3.39;100.00
40171;BME280;37650;52.790;18.268;2023-03-26T22:33:58;99162.39;;;3.37;100.00
40171;BME280;37650;52.790;18.268;2023-03-26T22:37:20;99160.74;;;3.33;100.00
40171;BME280;37650;52.790;18.268;2023-03-26T22:40:43;99159.30;;;3.30;100.00
40171;BME280;37650;52.790;18.268;2023-03-26T22:44:05;99157.10;;;3.28;100.00
40171;BME280;37650;52.790;18.268;2023-03-26T22:47:26;99163.52;;;3.27;100.00
40171;BME280;37650;52.790;18.268;2023-03-26T22:51:04;99164.56;;;3.27;100.00
40171;BME280;37650;52.790;18.268;2023-03-26T22:54:26;99165.94;;;3.27;100.00
40171;BME280;37650;52.790;18.268;2023-03-26T22:57:47;99163.88;;;3.26;100.00
40171;BME280;37650;52.790;18.268;2023-03-26T23:01:14;99162.07;;;3.23;100.00
40171;BME280;37650;52.790;18.268;2023-03-26T23:04:38;99159.23;;;3.19;100.00
40171;BME280;37650;52.790;18.268;2023-03-26T23:07:59;99159.36;;;3.14;100.00
40171;BME280;37650;52.790;18.268;2023-03-26T23:11:20;99153.05;;;3.10;100.00
40171;BME280;37650;52.790;18.268;2023-03-26T23:14:42;99154.77;;;3.05;100.00
40171;BME280;37650;52.790;18.268;2023-03-26T23:18:05;99151.58;;;3.01;100.00
40171;BME280;37650;52.790;18.268;2023-03-26T23:21:27;99148.69;;;2.99;100.00
40171;BME280;37650;52.790;18.268;2023-03-26T23:24:48;99151.63;;;2.99;100.00
40171;BME280;37650;52.790;18.268;2023-03-26T23:28:10;99150.45;;;2.98;100.00
40171;BME280;37650;52.790;18.268;2023-03-26T23:31:31;99152.79;;;2.94;100.00
40171;BME280;37650;52.790;18.268;2023-03-26T23:34:53;99149.27;;;2.89;100.00
40171;BME280;37650;52.790;18.268;2023-03-26T23:38:18;99145.08;;;2.84;100.00
40171;BME280;37650;52.790;18.268;2023-03-26T23:41:45;99143.15;;;2.78;100.00
40171;BME280;37650;52.790;18.268;2023-03-26T23:45:06;99140.34;;;2.73;100.00
40171;BME280;37650;52.790;18.268;2023-03-26T23:48:28;99139.20;;;2.70;100.00
40171;BME280;37650;52.790;18.268;2023-03-26T23:51:49;99137.03;;;2.67;100.00
40171;BME280;37650;52.790;18.268;2023-03-26T23:55:12;99137.41;;;2.65;100.00
40171;BME280;37650;52.790;18.268;2023-03-26T23:58:33;99138.42;;;2.66;100.00
